sensor_id;sensor_type;location;lat;lon;timestamp;pressure;altitude;pressure_sealevel;temperature;humidity
60061;BME280;45933;51.336;12.612;2022-12-18T00:00:40;101440.19;;;-6.02;61.72
60061;BME280;45933;51.336;12.612;2022-12-18T00:03:06;101443.38;;;-6.04;62.25
60061;BME280;45933;51.336;12.612;2022-12-18T00:05:31;101440.84;;;-6.04;62.31
60061;BME280;45933;51.336;12.612;2022-12-18T00:07:57;101438.91;;;-6.07;62.24
60061;BME280;45933;51.336;12.612;2022-12-18T00:10:22;101439.06;;;-6.06;62.75
60061;BME280;45933;51.336;12.612;2022-12-18T00:12:47;101439.06;;;-6.06;62.15
60061;BME280;45933;51.336;12.612;2022-12-18T00:15:13;101440.84;;;-6.04;62.22
60061;BME280;45933;51.336;12.612;2022-12-18T00:17:38;101445.91;;;-6.04;62.47
60061;BME280;45933;51.336;12.612;2022-12-18T00:20:04;101452.00;;;-6.02;62.70
60061;BME280;45933;51.336;12.612;2022-12-18T00:22:29;101445.03;;;-6.05;62.55
60061;BME280;45933;51.336;12.612;2022-12-18T00:24:54;101448.47;;;-6.04;61.96
60061;BME280;45933;51.336;12.612;2022-12-18T00:27:20;101453.41;;;-6.06;60.97
60061;BME280;45933;51.336;12.612;2022-12-18T00:29:45;101455.94;;;-6.06;60.97
60061;BME280;45933;51.336;12.612;2022-12-18T00:32:10;101449.06;;;-6.07;60.97
60061;BME280;45933;51.336;12.612;2022-12-18T00:34:36;101447.06;;;-6.11;61.06
60061;BME280;45933;51.336;12.612;2022-12-18T00:37:01;101446.91;;;-6.13;60.79
60061;BME280;45933;51.336;12.612;2022-12-18T00:39:26;101443.25;;;-6.16;60.08
60061;BME280;45933;51.336;12.612;2022-12-18T00:41:52;101448.19;;;-6.18;60.46
60061;BME280;45933;51.336;12.612;2022-12-18T00:44:35;101455.56;;;-6.21;60.94
60061;BME280;45933;51.336;12.612;2022-12-18T00:47:01;101447.69;;;-6.24;61.30
60061;BME280;45933;51.336;12.612;2022-12-18T00:49:26;101445.16;;;-6.24;61.71
60061;BME280;45933;51.336;12.612;2022-12-18T00:51:51;101447.56;;;-6.25;62.20
60061;BME280;45933;51.336;12.612;2022-12-18T00:54:17;101453.53;;;-6.25;62.28
60061;BME280;45933;51.336;12.612;2022-12-18T00:56:42;101450.88;;;-6.26;62.52
60061;BME280;45933;51.336;12.612;2022-12-18T00:59:08;101455.19;;;-6.25;62.84
60061;BME280;45933;51.336;12.612;2022-12-18T01:01:33;101450.09;;;-6.25;63.21
60061;BME280;45933;51.336;12.612;2022-12-18T01:04:00;101456.06;;;-6.25;63.39
60061;BME280;45933;51.336;12.612;2022-12-18T01:06:26;101455.31;;;-6.24;63.11
60061;BME280;45933;51.336;12.612;2022-12-18T01:08:51;101459.75;;;-6.21;63.32
60061;BME280;45933;51.336;12.612;2022-12-18T01:11:18;101458.09;;;-6.21;63.13
60061;BME280;45933;51.336;12.612;2022-12-18T01:13:44;101456.06;;;-6.25;63.59
60061;BME280;45933;51.336;12.612;2022-12-18T01:16:15;101463.81;;;-6.23;63.82
60061;BME280;45933;51.336;12.612;2022-12-18T01:18:41;101462.03;;;-6.24;63.70
60061;BME280;45933;51.336;12.612;2022-12-18T01:21:13;101466.59;;;-6.20;63.18
60061;BME280;45933;51.336;12.612;2022-12-18T01:23:38;101463.81;;;-6.23;62.93
60061;BME280;45933;51.336;12.612;2022-12-18T01:26:09;101459.75;;;-6.21;63.00
60061;BME280;45933;51.336;12.612;2022-12-18T01:28:35;101463.81;;;-6.23;63.80
60061;BME280;45933;51.336;12.612;2022-12-18T01:31:15;101473.56;;;-6.18;63.01
60061;BME280;45933;51.336;12.612;2022-12-18T01:33:40;101475.09;;;-6.20;63.06
60061;BME280;45933;51.336;12.612;2022-12-18T01:36:07;101470.78;;;-6.21;63.01
60061;BME280;45933;51.336;12.612;2022-12-18T01:38:32;101474.09;;;-6.22;62.71
60061;BME280;45933;51.336;12.612;2022-12-18T01:40:58;101481.72;;;-6.22;62.30
60061;BME280;45933;51.336;12.612;2022-12-18T01:43:44;101483.72;;;-6.18;61.87
60061;BME280;45933;51.336;12.612;2022-12-18T01:46:10;101488.28;;;-6.24;62.21
60061;BME280;45933;51.336;12.612;2022-12-18T01:48:36;101482.84;;;-6.28;62.66
60061;BME280;45933;51.336;12.612;2022-12-18T01:51:01;101482.84;;;-6.28;62.90
60061;BME280;45933;51.336;12.612;2022-12-18T01:53:27;101482.72;;;-6.30;62.54
60061;BME280;45933;51.336;12.612;2022-12-18T01:55:55;101484.97;;;-6.33;62.27
60061;BME280;45933;51.336;12.612;2022-12-18T01:58:45;101490.44;;;-6.28;62.02
60061;BME280;45933;51.336;12.612;2022-12-18T02:01:13;101492.47;;;-6.35;61.94
60061;BME280;45933;51.336;12.612;2022-12-18T02:03:41;101497.53;;;-6.35;61.87
60061;BME280;45933;51.336;12.612;2022-12-18T02:06:16;101495.78;;;-6.36;61.63
60061;BME280;45933;51.336;12.612;2022-12-18T02:08:58;101498.31;;;-6.36;61.40
60061;BME280;45933;51.336;12.612;2022-12-18T02:14:25;101497.03;;;-6.41;60.95
60061;BME280;45933;51.336;12.612;2022-12-18T02:17:17;101481.53;;;-6.44;60.79
60061;BME280;45933;51.336;12.612;2022-12-18T02:27:48;101494.56;;;-6.60;61.87
60061;BME280;45933;51.336;12.612;2022-12-18T02:30:16;101494.34;;;-6.63;61.80
60061;BME280;45933;51.336;12.612;2022-12-18T02:32:46;101500.19;;;-6.64;61.09
60061;BME280;45933;51.336;12.612;2022-12-18T02:35:16;101506.63;;;-6.67;61.69
60061;BME280;45933;51.336;12.612;2022-12-18T02:37:44;101500.38;;;-6.71;61.52
60061;BME280;45933;51.336;12.612;2022-12-18T02:40:14;101495.47;;;-6.69;61.28
60061;BME280;45933;51.336;12.612;2022-12-18T02:42:40;101498.50;;;-6.73;61.46
60061;BME280;45933;51.336;12.612;2022-12-18T02:45:06;101506.72;;;-6.76;62.08
60061;BME280;45933;51.336;12.612;2022-12-18T02:47:38;101505.81;;;-6.76;61.80
60061;BME280;45933;51.336;12.612;2022-12-18T02:50:34;101506.09;;;-6.73;61.09
60061;BME280;45933;51.336;12.612;2022-12-18T02:53:17;101509.13;;;-6.77;61.32
60061;BME280;45933;51.336;12.612;2022-12-18T02:55:54;101496.94;;;-6.81;61.35
60061;BME280;45933;51.336;12.612;2022-12-18T03:01:24;101506.06;;;-6.83;61.41
60061;BME280;45933;51.336;12.612;2022-12-18T03:03:57;101504.91;;;-6.87;61.40
60061;BME280;45933;51.336;12.612;2022-12-18T03:06:36;101498.94;;;-6.88;61.40
60061;BME280;45933;51.336;12.612;2022-12-18T03:09:09;101499.31;;;-6.93;61.61
60061;BME280;45933;51.336;12.612;2022-12-18T03:11:40;101498.41;;;-6.94;61.98
60061;BME280;45933;51.336;12.612;2022-12-18T03:14:29;101500.69;;;-6.97;62.17
60061;BME280;45933;51.336;12.612;2022-12-18T03:16:58;101508.28;;;-6.97;61.86
60061;BME280;45933;51.336;12.612;2022-12-18T03:19:27;101504.75;;;-6.99;61.79
60061;BME280;45933;51.336;12.612;2022-12-18T03:21:56;101517.41;;;-6.99;62.23
60061;BME280;45933;51.336;12.612;2022-12-18T03:24:24;101520.72;;;-7.00;61.99
60061;BME280;45933;51.336;12.612;2022-12-18T03:26:54;101517.41;;;-6.99;62.17
60061;BME280;45933;51.336;12.612;2022-12-18T03:29:26;101527.56;;;-6.99;62.07
60061;BME280;45933;51.336;12.612;2022-12-18T03:32:03;101524.38;;;-6.96;61.99
60061;BME280;45933;51.336;12.612;2022-12-18T03:34:34;101536.16;;;-6.97;61.65
60061;BME280;45933;51.336;12.612;2022-12-18T03:37:01;101539.34;;;-6.99;61.99
60061;BME280;45933;51.336;12.612;2022-12-18T03:39:26;101541.00;;;-7.00;61.79
60061;BME280;45933;51.336;12.612;2022-12-18T03:45:13;101534.81;;;-6.93;61.35
60061;BME280;45933;51.336;12.612;2022-12-18T03:47:53;101537.41;;;-7.02;61.74
60061;BME280;45933;51.336;12.612;2022-12-18T03:50:30;101541.00;;;-7.00;61.87
60061;BME280;45933;51.336;12.612;2022-12-18T03:53:01;101543.38;;;-7.01;61.58
60061;BME280;45933;51.336;12.612;2022-12-18T03:55:32;101539.22;;;-7.01;61.42
60061;BME280;45933;51.336;12.612;2022-12-18T03:58:01;101531.34;;;-7.04;61.80
60061;BME280;45933;51.336;12.612;2022-12-18T04:00:28;101529.44;;;-7.06;61.49
60061;BME280;45933;51.336;12.612;2022-12-18T04:02:56;101524.50;;;-7.05;61.34
60061;BME280;45933;51.336;12.612;2022-12-18T04:05:25;101516.75;;;-7.06;61.49
60061;BME280;45933;51.336;12.612;2022-12-18T04:07:52;101524.84;;;-7.11;61.36
60061;BME280;45933;51.336;12.612;2022-12-18T04:10:19;101525.59;;;-7.12;61.40
60061;BME280;45933;51.336;12.612;2022-12-18T04:12:44;101523.69;;;-7.14;61.24
60061;BME280;45933;51.336;12.612;2022-12-18T04:15:11;101525.03;;;-7.18;61.41
60061;BME280;45933;51.336;12.612;2022-12-18T04:17:37;101528.22;;;-7.20;61.36
60061;BME280;45933;51.336;12.612;2022-12-18T04:20:03;101522.84;;;-7.23;61.39
60061;BME280;45933;51.336;12.612;2022-12-18T04:22:29;101529.56;;;-7.24;61.53
60061;BME280;45933;51.336;12.612;2022-12-18T04:24:54;101533.00;;;-7.23;61.89
60061;BME280;45933;51.336;12.612;2022-12-18T04:27:20;101526.78;;;-7.27;61.78
60061;BME280;45933;51.336;12.612;2022-12-18T04:29:45;101523.97;;;-7.30;61.70
60061;BME280;45933;51.336;12.612;2022-12-18T04:32:10;101518.38;;;-7.36;62.17
60061;BME280;45933;51.336;12.612;2022-12-18T04:34:36;101515.56;;;-7.39;61.93
60061;BME280;45933;51.336;12.612;2022-12-18T04:37:01;101516.19;;;-7.42;62.18
60061;BME280;45933;51.336;12.612;2022-12-18T04:39:26;101524.19;;;-7.37;62.05
60061;BME280;45933;51.336;12.612;2022-12-18T04:41:52;101518.72;;;-7.42;61.99
60061;BME280;45933;51.336;12.612;2022-12-18T04:44:17;101521.84;;;-7.44;62.20
60061;BME280;45933;51.336;12.612;2022-12-18T04:46:42;101522.38;;;-7.48;62.38
60061;BME280;45933;51.336;12.612;2022-12-18T04:49:08;101522.63;;;-7.45;62.64
60061;BME280;45933;51.336;12.612;2022-12-18T04:54:44;101516.38;;;-7.49;62.78
60061;BME280;45933;51.336;12.612;2022-12-18T04:57:10;101507.00;;;-7.50;62.71
60061;BME280;45933;51.336;12.612;2022-12-18T04:59:35;101514.13;;;-7.46;62.59
60061;BME280;45933;51.336;12.612;2022-12-18T05:02:00;101517.56;;;-7.45;62.63
60061;BME280;45933;51.336;12.612;2022-12-18T05:04:26;101516.06;;;-7.43;62.63
60061;BME280;45933;51.336;12.612;2022-12-18T05:06:51;101519.47;;;-7.43;62.18
60061;BME280;45933;51.336;12.612;2022-12-18T05:09:16;101515.16;;;-7.44;62.57
60061;BME280;45933;51.336;12.612;2022-12-18T05:11:42;101512.00;;;-7.41;62.34
60061;BME280;45933;51.336;12.612;2022-12-18T05:14:07;101517.84;;;-7.42;62.58
60061;BME280;45933;51.336;12.612;2022-12-18T05:16:32;101517.97;;;-7.41;62.18
60061;BME280;45933;51.336;12.612;2022-12-18T05:18:58;101520.78;;;-7.38;62.20
60061;BME280;45933;51.336;12.612;2022-12-18T05:21:23;101516.31;;;-7.40;62.81
60061;BME280;45933;51.336;12.612;2022-12-18T05:23:48;101518.44;;;-7.45;63.00
60061;BME280;45933;51.336;12.612;2022-12-18T05:26:16;101520.38;;;-7.42;62.75
60061;BME280;45933;51.336;12.612;2022-12-18T05:28:42;101515.56;;;-7.39;62.49
60061;BME280;45933;51.336;12.612;2022-12-18T05:31:07;101517.19;;;-7.40;62.54
60061;BME280;45933;51.336;12.612;2022-12-18T05:33:34;101524.19;;;-7.37;62.37
60061;BME280;45933;51.336;12.612;2022-12-18T05:36:01;101524.97;;;-7.38;62.64
60061;BME280;45933;51.336;12.612;2022-12-18T05:38:28;101520.50;;;-7.41;62.80
60061;BME280;45933;51.336;12.612;2022-12-18T05:40:54;101532.28;;;-7.41;62.77
60061;BME280;45933;51.336;12.612;2022-12-18T05:43:20;101533.56;;;-7.36;62.63
60061;BME280;45933;51.336;12.612;2022-12-18T05:45:47;101539.53;;;-7.35;62.22
60061;BME280;45933;51.336;12.612;2022-12-18T05:48:12;101536.34;;;-7.33;62.15
60061;BME280;45933;51.336;12.612;2022-12-18T05:50:40;101537.28;;;-7.32;61.86
60061;BME280;45933;51.336;12.612;2022-12-18T05:53:06;101544.88;;;-7.32;61.78
60061;BME280;45933;51.336;12.612;2022-12-18T05:55:35;101544.13;;;-7.31;61.83
60061;BME280;45933;51.336;12.612;2022-12-18T05:58:03;101553.97;;;-7.34;61.61
60061;BME280;45933;51.336;12.612;2022-12-18T06:00:30;101557.53;;;-7.32;61.58
60061;BME280;45933;51.336;12.612;2022-12-18T06:02:55;101558.44;;;-7.32;61.69
60061;BME280;45933;51.336;12.612;2022-12-18T06:05:21;101560.06;;;-7.32;61.13
60061;BME280;45933;51.336;12.612;2022-12-18T06:07:46;101562.63;;;-7.32;61.23
60061;BME280;45933;51.336;12.612;2022-12-18T06:10:12;101563.34;;;-7.33;61.17
60061;BME280;45933;51.336;12.612;2022-12-18T06:12:37;101564.09;;;-7.34;61.22
60061;BME280;45933;51.336;12.612;2022-12-18T06:15:03;101565.63;;;-7.37;60.90
60061;BME280;45933;51.336;12.612;2022-12-18T06:17:34;101569.94;;;-7.35;60.78
60061;BME280;45933;51.336;12.612;2022-12-18T06:19:59;101569.63;;;-7.39;61.09
60061;BME280;45933;51.336;12.612;2022-12-18T06:22:25;101575.22;;;-7.43;61.16
60061;BME280;45933;51.336;12.612;2022-12-18T06:24:51;101580.88;;;-7.45;60.65
60061;BME280;45933;51.336;12.612;2022-12-18T06:27:16;101581.50;;;-7.48;60.60
60061;BME280;45933;51.336;12.612;2022-12-18T06:29:42;101580.47;;;-7.50;60.71
60061;BME280;45933;51.336;12.612;2022-12-18T06:32:08;101588.81;;;-7.51;60.31
60061;BME280;45933;51.336;12.612;2022-12-18T06:34:33;101589.44;;;-7.53;60.43
60061;BME280;45933;51.336;12.612;2022-12-18T06:36:59;101600.16;;;-7.56;60.25
60061;BME280;45933;51.336;12.612;2022-12-18T06:39:27;101591.28;;;-7.61;60.28
60061;BME280;45933;51.336;12.612;2022-12-18T06:41:52;101592.38;;;-7.68;60.25
60061;BME280;45933;51.336;12.612;2022-12-18T06:44:18;101597.28;;;-7.69;60.52
60061;BME280;45933;51.336;12.612;2022-12-18T06:46:43;101596.00;;;-7.74;60.29
60061;BME280;45933;51.336;12.612;2022-12-18T06:49:08;101581.84;;;-7.81;60.65
60061;BME280;45933;51.336;12.612;2022-12-18T06:51:34;101577.88;;;-7.87;61.01
60061;BME280;45933;51.336;12.612;2022-12-18T06:54:00;101575.47;;;-7.86;60.42
60061;BME280;45933;51.336;12.612;2022-12-18T06:56:25;101580.53;;;-7.86;60.51
60061;BME280;45933;51.336;12.612;2022-12-18T06:58:51;101581.94;;;-7.90;60.55
60061;BME280;45933;51.336;12.612;2022-12-18T07:01:16;101584.28;;;-7.91;60.38
60061;BME280;45933;51.336;12.612;2022-12-18T07:03:42;101586.69;;;-7.93;60.09
60061;BME280;45933;51.336;12.612;2022-12-18T07:06:18;101590.88;;;-7.93;60.20
60061;BME280;45933;51.336;12.612;2022-12-18T07:08:45;101598.03;;;-7.98;60.58
60061;BME280;45933;51.336;12.612;2022-12-18T07:11:10;101599.53;;;-8.00;60.46
60061;BME280;45933;51.336;12.612;2022-12-18T07:13:35;101599.53;;;-8.00;60.98
60061;BME280;45933;51.336;12.612;2022-12-18T07:16:09;101599.81;;;-7.97;60.27
60061;BME280;45933;51.336;12.612;2022-12-18T07:18:35;101598.78;;;-7.99;60.25
60061;BME280;45933;51.336;12.612;2022-12-18T07:21:09;101593.88;;;-7.97;60.35
60061;BME280;45933;51.336;12.612;2022-12-18T07:23:35;101604.63;;;-8.00;60.05
60061;BME280;45933;51.336;12.612;2022-12-18T07:26:03;101602.22;;;-7.98;60.02
60061;BME280;45933;51.336;12.612;2022-12-18T07:28:28;101597.16;;;-7.98;60.02
60061;BME280;45933;51.336;12.612;2022-12-18T07:30:54;101604.75;;;-7.98;60.20
60061;BME280;45933;51.336;12.612;2022-12-18T07:33:19;101613.22;;;-7.98;59.57
60061;BME280;45933;51.336;12.612;2022-12-18T07:35:44;101614.09;;;-7.97;59.92
60061;BME280;45933;51.336;12.612;2022-12-18T07:38:10;101615.00;;;-7.97;59.52
60061;BME280;45933;51.336;12.612;2022-12-18T07:40:35;101605.75;;;-7.96;59.74
60061;BME280;45933;51.336;12.612;2022-12-18T07:43:00;101606.69;;;-7.96;60.11
60061;BME280;45933;51.336;12.612;2022-12-18T07:45:25;101608.72;;;-7.92;60.15
60061;BME280;45933;51.336;12.612;2022-12-18T07:47:51;101602.31;;;-7.88;60.68
60061;BME280;45933;51.336;12.612;2022-12-18T07:50:16;101606.16;;;-7.83;60.57
60061;BME280;45933;51.336;12.612;2022-12-18T07:52:41;101619.50;;;-7.75;60.69
60061;BME280;45933;51.336;12.612;2022-12-18T07:55:07;101615.91;;;-7.69;60.12
60061;BME280;45933;51.336;12.612;2022-12-18T07:57:32;101619.13;;;-7.61;60.53
60061;BME280;45933;51.336;12.612;2022-12-18T07:59:58;101620.56;;;-7.54;60.50
60061;BME280;45933;51.336;12.612;2022-12-18T08:02:23;101630.34;;;-7.49;60.05
60061;BME280;45933;51.336;12.612;2022-12-18T08:04:48;101626.59;;;-7.44;60.49
60061;BME280;45933;51.336;12.612;2022-12-18T08:07:14;101633.72;;;-7.40;60.38
60061;BME280;45933;51.336;12.612;2022-12-18T08:09:39;101641.16;;;-7.32;60.45
60061;BME280;45933;51.336;12.612;2022-12-18T08:12:05;101643.34;;;-7.27;61.07
60061;BME280;45933;51.336;12.612;2022-12-18T08:14:30;101646.22;;;-7.14;60.73
60061;BME280;45933;51.336;12.612;2022-12-18T08:16:55;101650.41;;;-6.95;61.45
60061;BME280;45933;51.336;12.612;2022-12-18T08:19:21;101646.53;;;-6.81;60.80
60061;BME280;45933;51.336;12.612;2022-12-18T08:21:46;101643.28;;;-6.70;60.48
60061;BME280;45933;51.336;12.612;2022-12-18T08:24:11;101645.88;;;-6.60;59.83
60061;BME280;45933;51.336;12.612;2022-12-18T08:26:37;101643.88;;;-6.54;59.71
60061;BME280;45933;51.336;12.612;2022-12-18T08:29:02;101648.06;;;-6.54;60.11
60061;BME280;45933;51.336;12.612;2022-12-18T08:31:28;101645.00;;;-6.61;60.27
60061;BME280;45933;51.336;12.612;2022-12-18T08:33:55;101651.19;;;-6.67;60.69
60061;BME280;45933;51.336;12.612;2022-12-18T08:36:21;101649.19;;;-6.61;60.24
60061;BME280;45933;51.336;12.612;2022-12-18T08:38:47;101656.66;;;-6.63;60.55
60061;BME280;45933;51.336;12.612;2022-12-18T08:41:15;101654.66;;;-6.56;60.47
60061;BME280;45933;51.336;12.612;2022-12-18T08:43:40;101658.84;;;-6.57;60.75
60061;BME280;45933;51.336;12.612;2022-12-18T08:46:26;101663.91;;;-6.57;61.12
60061;BME280;45933;51.336;12.612;2022-12-18T08:48:53;101663.28;;;-6.54;61.36
60061;BME280;45933;51.336;12.612;2022-12-18T08:51:20;101662.69;;;-6.52;61.76
60061;BME280;45933;51.336;12.612;2022-12-18T08:53:45;101657.28;;;-6.36;62.12
60061;BME280;45933;51.336;12.612;2022-12-18T08:56:12;101651.78;;;-6.22;61.28
60061;BME280;45933;51.336;12.612;2022-12-18T08:58:37;101654.34;;;-6.01;61.13
60061;BME280;45933;51.336;12.612;2022-12-18T09:01:04;101663.22;;;-5.86;60.71
60061;BME280;45933;51.336;12.612;2022-12-18T09:03:30;101669.59;;;-5.71;60.27
60061;BME280;45933;51.336;12.612;2022-12-18T09:05:55;101662.91;;;-5.50;61.16
60061;BME280;45933;51.336;12.612;2022-12-18T09:08:21;101666.72;;;-5.35;60.36
60061;BME280;45933;51.336;12.612;2022-12-18T09:10:48;101664.06;;;-5.16;60.44
60061;BME280;45933;51.336;12.612;2022-12-18T09:13:15;101662.88;;;-4.89;60.46
60061;BME280;45933;51.336;12.612;2022-12-18T09:15:41;101674.28;;;-4.63;59.88
60061;BME280;45933;51.336;12.612;2022-12-18T09:18:07;101673.03;;;-4.36;59.68
60061;BME280;45933;51.336;12.612;2022-12-18T09:20:32;101671.97;;;-4.06;59.16
60061;BME280;45933;51.336;12.612;2022-12-18T09:22:58;101671.41;;;-3.70;59.42
60061;BME280;45933;51.336;12.612;2022-12-18T09:25:23;101664.00;;;-3.33;58.13
60061;BME280;45933;51.336;12.612;2022-12-18T09:27:48;101659.84;;;-2.86;59.57
60061;BME280;45933;51.336;12.612;2022-12-18T09:30:14;101650.19;;;-2.31;58.86
60061;BME280;45933;51.336;12.612;2022-12-18T09:32:39;101650.13;;;-1.71;59.21
60061;BME280;45933;51.336;12.612;2022-12-18T09:35:04;101653.88;;;-1.03;59.50
60061;BME280;45933;51.336;12.612;2022-12-18T09:37:30;101641.47;;;-0.44;54.98
60061;BME280;45933;51.336;12.612;2022-12-18T09:39:56;101628.16;;;0.16;52.59
60061;BME280;45933;51.336;12.612;2022-12-18T09:42:22;101631.50;;;0.73;49.91
60061;BME280;45933;51.336;12.612;2022-12-18T09:44:53;101620.03;;;1.42;50.82
60061;BME280;45933;51.336;12.612;2022-12-18T09:47:35;101613.91;;;2.02;52.41
60061;BME280;45933;51.336;12.612;2022-12-18T09:50:06;101601.63;;;2.29;47.76
60061;BME280;45933;51.336;12.612;2022-12-18T09:52:45;101609.94;;;2.57;47.02
60061;BME280;45933;51.336;12.612;2022-12-18T09:55:33;101598.84;;;2.93;48.65
60061;BME280;45933;51.336;12.612;2022-12-18T09:58:40;101596.78;;;3.57;50.16
60061;BME280;45933;51.336;12.612;2022-12-18T10:01:21;101587.59;;;4.01;49.27
60061;BME280;45933;51.336;12.612;2022-12-18T10:03:47;101573.72;;;4.37;45.31
60061;BME280;45933;51.336;12.612;2022-12-18T10:06:24;101570.06;;;4.93;47.48
60061;BME280;45933;51.336;12.612;2022-12-18T10:09:51;101566.81;;;5.41;46.70
60061;BME280;45933;51.336;12.612;2022-12-18T10:14:41;101559.00;;;6.32;42.28
60061;BME280;45933;51.336;12.612;2022-12-18T10:17:28;101552.31;;;6.90;45.92
60061;BME280;45933;51.336;12.612;2022-12-18T10:19:59;101551.56;;;7.19;42.69
60061;BME280;45933;51.336;12.612;2022-12-18T10:22:38;101546.56;;;7.54;42.07
60061;BME280;45933;51.336;12.612;2022-12-18T10:25:26;101544.47;;;8.01;43.05
60061;BME280;45933;51.336;12.612;2022-12-18T10:28:00;101535.66;;;8.27;40.96
60061;BME280;45933;51.336;12.612;2022-12-18T10:30:32;101536.34;;;8.52;38.83
60061;BME280;45933;51.336;12.612;2022-12-18T10:33:01;101526.25;;;8.99;38.28
60061;BME280;45933;51.336;12.612;2022-12-18T10:35:27;101524.91;;;9.14;38.83
60061;BME280;45933;51.336;12.612;2022-12-18T10:38:25;101524.75;;;9.46;35.68
60061;BME280;45933;51.336;12.612;2022-12-18T10:41:04;101516.97;;;9.90;38.61
60061;BME280;45933;51.336;12.612;2022-12-18T10:43:33;101520.75;;;10.06;36.65
60061;BME280;45933;51.336;12.612;2022-12-18T10:46:13;101519.28;;;10.18;32.91
60061;BME280;45933;51.336;12.612;2022-12-18T10:48:56;101506.44;;;10.28;34.80
60061;BME280;45933;51.336;12.612;2022-12-18T10:51:30;101507.69;;;10.48;35.35
60061;BME280;45933;51.336;12.612;2022-12-18T10:54:13;101503.50;;;10.58;35.89
60061;BME280;45933;51.336;12.612;2022-12-18T10:56:39;101503.53;;;10.59;33.69
60061;BME280;45933;51.336;12.612;2022-12-18T10:59:08;101495.84;;;10.67;32.83
60061;BME280;45933;51.336;12.612;2022-12-18T11:04:20;101494.78;;;11.12;32.21
60061;BME280;45933;51.336;12.612;2022-12-18T11:07:06;101489.88;;;11.33;30.66
60061;BME280;45933;51.336;12.612;2022-12-18T11:09:36;101496.13;;;11.44;33.34
60061;BME280;45933;51.336;12.612;2022-12-18T11:12:05;101503.91;;;11.40;30.46
60061;BME280;45933;51.336;12.612;2022-12-18T11:14:47;101503.44;;;11.71;33.33
60061;BME280;45933;51.336;12.612;2022-12-18T11:17:21;101503.69;;;11.88;32.84
60061;BME280;45933;51.336;12.612;2022-12-18T11:19:55;101499.50;;;12.07;33.76
60061;BME280;45933;51.336;12.612;2022-12-18T11:22:26;101499.56;;;12.09;30.46
60061;BME280;45933;51.336;12.612;2022-12-18T11:28:05;101495.66;;;12.58;32.69
60061;BME280;45933;51.336;12.612;2022-12-18T11:30:35;101498.44;;;12.78;32.06
60061;BME280;45933;51.336;12.612;2022-12-18T11:33:09;101501.06;;;12.78;32.09
60061;BME280;45933;51.336;12.612;2022-12-18T11:35:41;101509.91;;;12.95;30.71
60061;BME280;45933;51.336;12.612;2022-12-18T11:38:23;101508.25;;;13.03;32.11
60061;BME280;45933;51.336;12.612;2022-12-18T11:40:58;101508.47;;;13.39;32.18
60061;BME280;45933;51.336;12.612;2022-12-18T11:43:31;101504.19;;;13.51;30.71
60061;BME280;45933;51.336;12.612;2022-12-18T11:46:18;101515.69;;;13.76;31.82
60061;BME280;45933;51.336;12.612;2022-12-18T11:49:03;101517.44;;;13.82;31.37
60061;BME280;45933;51.336;12.612;2022-12-18T11:51:41;101512.22;;;13.94;31.00
60061;BME280;45933;51.336;12.612;2022-12-18T11:54:13;101521.00;;;13.99;29.77
60061;BME280;45933;51.336;12.612;2022-12-18T11:56:48;101521.00;;;14.04;28.99
60061;BME280;45933;51.336;12.612;2022-12-18T12:01:53;101512.34;;;14.31;29.23
60061;BME280;45933;51.336;12.612;2022-12-18T12:07:28;101496.63;;;14.48;30.49
60061;BME280;45933;51.336;12.612;2022-12-18T12:12:58;101492.25;;;14.50;31.20
60061;BME280;45933;51.336;12.612;2022-12-18T12:26:40;101498.09;;;13.60;29.22
60061;BME280;45933;51.336;12.612;2022-12-18T12:29:27;101485.78;;;13.39;29.20
60061;BME280;45933;51.336;12.612;2022-12-18T12:32:25;101476.91;;;13.14;28.03
60061;BME280;45933;51.336;12.612;2022-12-18T12:37:51;101462.56;;;12.63;30.23
60061;BME280;45933;51.336;12.612;2022-12-18T12:40:23;101471.06;;;12.36;28.16
60061;BME280;45933;51.336;12.612;2022-12-18T12:43:15;101468.34;;;12.27;29.44
60061;BME280;45933;51.336;12.612;2022-12-18T12:46:00;101463.88;;;12.15;30.01
60061;BME280;45933;51.336;12.612;2022-12-18T12:49:01;101469.78;;;11.94;30.16
60061;BME280;45933;51.336;12.612;2022-12-18T12:51:39;101478.13;;;11.67;28.97
60061;BME280;45933;51.336;12.612;2022-12-18T12:54:13;101485.59;;;11.38;28.71
60061;BME280;45933;51.336;12.612;2022-12-18T12:59:22;101490.59;;;10.65;28.25
60061;BME280;45933;51.336;12.612;2022-12-18T13:02:13;101481.34;;;10.33;29.41
60061;BME280;45933;51.336;12.612;2022-12-18T13:04:47;101484.66;;;9.80;28.89
60061;BME280;45933;51.336;12.612;2022-12-18T13:07:21;101480.72;;;9.57;29.91
60061;BME280;45933;51.336;12.612;2022-12-18T13:10:12;101474.88;;;9.68;30.60
60061;BME280;45933;51.336;12.612;2022-12-18T13:12:52;101459.44;;;9.76;32.20
60061;BME280;45933;51.336;12.612;2022-12-18T13:15:28;101457.81;;;9.83;30.37
60061;BME280;45933;51.336;12.612;2022-12-18T13:18:14;101442.97;;;10.24;31.65
60061;BME280;45933;51.336;12.612;2022-12-18T13:20:49;101438.91;;;10.40;30.82
60061;BME280;45933;51.336;12.612;2022-12-18T13:23:35;101437.72;;;10.76;31.33
60061;BME280;45933;51.336;12.612;2022-12-18T13:31:10;101432.06;;;11.03;28.34
60061;BME280;45933;51.336;12.612;2022-12-18T13:33:45;101438.94;;;10.97;28.13
60061;BME280;45933;51.336;12.612;2022-12-18T13:36:26;101431.91;;;10.93;29.71
60061;BME280;45933;51.336;12.612;2022-12-18T13:41:42;101443.72;;;10.20;28.13
60061;BME280;45933;51.336;12.612;2022-12-18T13:44:32;101446.22;;;10.12;29.14
60061;BME280;45933;51.336;12.612;2022-12-18T13:46:59;101440.81;;;9.56;28.34
60061;BME280;45933;51.336;12.612;2022-12-18T13:49:43;101455.03;;;9.33;29.87
60061;BME280;45933;51.336;12.612;2022-12-18T13:52:24;101453.16;;;8.86;30.03
60061;BME280;45933;51.336;12.612;2022-12-18T13:54:52;101448.06;;;8.22;29.66
60061;BME280;45933;51.336;12.612;2022-12-18T13:57:34;101446.22;;;7.84;30.05